Time;durP1;ratioP1;P1;durP2;ratioP2;P2;SDS_P1;SDS_P2;PMS_P1;PMS_P2;Temp;Humidity;BMP_temperature;BMP_pressure;BME280_temperature;BME280_humidity;BME280_pressure;Samples;Min_cycle;Max_cycle;Signal;HPM_P1;HPM_P2
2022/02/18 00:02:25;;;;;;;13.60;3.15;;;5.40;99.90;;;;;;5040910;28;20053;-67
2022/02/18 00:04:52;;;;;;;14.68;3.17;;;5.40;99.90;;;;;;5043251;28;20091;-66
2022/02/18 00:07:18;;;;;;;20.70;3.42;;;5.40;99.90;;;;;;5043150;28;20128;-64
2022/02/18 00:09:45;;;;;;;16.85;3.35;;;5.30;99.90;;;;;;5041261;28;20053;-62
2022/02/18 00:12:12;;;;;;;14.75;3.80;;;5.30;99.90;;;;;;5019919;28;20087;-67
2022/02/18 00:14:38;;;;;;;18.80;3.35;;;5.30;99.90;;;;;;5037804;28;20041;-62
2022/02/18 00:17:08;;;;;;;25.88;3.78;;;5.30;99.90;;;;;;5034938;28;20049;-62
2022/02/18 00:19:35;;;;;;;27.23;4.10;;;5.20;99.90;;;;;;5024405;28;20045;-62
2022/02/18 00:22:02;;;;;;;17.77;3.00;;;5.30;99.90;;;;;;5035100;28;20046;-62
2022/02/18 00:24:28;;;;;;;18.00;2.85;;;5.30;99.90;;;;;;5042618;28;20055;-66
2022/02/18 00:26:54;;;;;;;18.35;3.08;;;5.30;99.90;;;;;;5025702;28;20408;-67
2022/02/18 00:29:20;;;;;;;19.67;3.28;;;5.30;99.90;;;;;;5042524;28;20053;-66
2022/02/18 00:31:46;;;;;;;17.58;3.80;;;5.30;99.90;;;;;;5042785;28;20175;-67
2022/02/18 00:34:12;;;;;;;18.05;2.90;;;5.20;99.90;;;;;;5044417;28;20122;-62
2022/02/18 00:36:41;;;;;;;12.50;3.13;;;5.20;99.90;;;;;;5023801;28;20512;-62
2022/02/18 00:39:07;;;;;;;11.63;2.90;;;5.20;99.90;;;;;;5024764;28;20053;-66
2022/02/18 00:41:33;;;;;;;15.90;3.25;;;5.20;99.90;;;;;;5040531;28;20041;-66
2022/02/18 00:43:59;;;;;;;18.95;3.17;;;5.10;99.90;;;;;;5029380;28;20105;-66
2022/02/18 00:46:29;;;;;;;19.27;2.97;;;5.10;99.90;;;;;;5026154;28;20688;-66
2022/02/18 00:48:55;;;;;;;12.38;3.13;;;5.00;99.90;;;;;;5019229;28;20086;-66
2022/02/18 00:51:22;;;;;;;19.92;3.38;;;5.00;99.90;;;;;;5009901;28;20131;-66
2022/02/18 00:53:48;;;;;;;19.48;3.65;;;5.00;99.90;;;;;;5046536;28;20075;-67
2022/02/18 00:56:15;;;;;;;20.02;3.47;;;4.90;99.90;;;;;;5029642;28;20068;-67
2022/02/18 00:58:41;;;;;;;20.55;3.08;;;4.90;99.90;;;;;;5042318;28;20056;-67
2022/02/18 01:01:08;;;;;;;23.63;3.47;;;5.00;99.90;;;;;;5046538;28;20127;-67
2022/02/18 01:03:35;;;;;;;17.15;2.70;;;4.90;99.90;;;;;;5044926;28;20045;-67
2022/02/18 01:06:01;;;;;;;19.10;3.30;;;4.90;99.90;;;;;;5028645;28;20044;-63
2022/02/18 01:08:28;;;;;;;15.20;2.45;;;5.00;99.90;;;;;;5046927;28;20068;-67
2022/02/18 01:10:54;;;;;;;17.55;3.13;;;5.00;99.90;;;;;;5044034;28;20060;-67
2022/02/18 01:13:20;;;;;;;14.32;3.25;;;5.00;99.90;;;;;;5040073;28;20053;-67
2022/02/18 01:15:46;;;;;;;13.93;3.58;;;4.90;99.90;;;;;;5046980;28;20110;-62
2022/02/18 01:18:12;;;;;;;15.98;3.72;;;5.00;99.90;;;;;;5044643;28;20126;-63
2022/02/18 01:20:42;;;;;;;13.10;2.85;;;5.00;99.90;;;;;;5023597;28;20128;-62
2022/02/18 01:23:08;;;;;;;21.33;3.47;;;5.00;99.90;;;;;;5027128;28;20077;-63
2022/02/18 01:25:34;;;;;;;10.77;2.70;;;5.00;99.90;;;;;;5025674;28;20102;-63
2022/02/18 01:28:03;;;;;;;15.88;3.67;;;4.90;99.90;;;;;;5011067;28;20082;-62
2022/02/18 01:30:30;;;;;;;15.73;3.08;;;4.90;99.90;;;;;;5041965;28;20047;-63
2022/02/18 01:32:56;;;;;;;11.20;2.70;;;4.90;99.90;;;;;;5044058;28;20415;-63
2022/02/18 01:35:22;;;;;;;22.70;3.80;;;4.80;99.90;;;;;;5037484;28;20474;-63
2022/02/18 01:37:51;;;;;;;17.27;3.13;;;4.80;99.90;;;;;;5055213;28;20139;-63
2022/02/18 01:40:19;;;;;;;17.80;3.08;;;4.90;99.90;;;;;;5026825;28;20049;-63
2022/02/18 01:42:46;;;;;;;13.90;2.97;;;4.80;99.90;;;;;;5041599;28;20052;-63
2022/02/18 01:45:12;;;;;;;15.50;3.08;;;4.80;99.90;;;;;;5042978;28;20059;-63
2022/02/18 01:47:39;;;;;;;21.60;3.58;;;4.90;99.90;;;;;;5043736;28;20049;-63
2022/02/18 01:50:06;;;;;;;17.75;2.63;;;4.90;99.90;;;;;;5011826;28;20617;-63
2022/02/18 01:52:35;;;;;;;13.23;2.85;;;4.80;99.90;;;;;;5044372;28;20049;-63
2022/02/18 01:55:10;;;;;;;21.08;3.67;;;4.90;99.90;;;;;;5040846;28;20078;-64
2022/02/18 01:57:39;;;;;;;16.85;3.22;;;4.90;99.90;;;;;;5042356;28;20049;-63
2022/02/18 02:00:07;;;;;;;18.15;2.75;;;4.90;99.90;;;;;;5043217;28;20352;-62
2022/02/18 02:02:41;;;;;;;17.83;3.33;;;4.90;99.90;;;;;;5043554;28;20041;-63
2022/02/18 02:05:08;;;;;;;12.57;2.83;;;4.90;99.90;;;;;;5025024;28;20677;-63
2022/02/18 02:07:36;;;;;;;17.88;3.53;;;4.90;99.90;;;;;;5034360;28;20073;-64
2022/02/18 02:10:03;;;;;;;11.40;2.92;;;4.90;99.90;;;;;;5040695;28;20673;-63
2022/02/18 02:12:29;;;;;;;16.77;3.35;;;5.00;99.90;;;;;;5027824;28;20055;-63
2022/02/18 02:14:55;;;;;;;15.82;3.65;;;5.00;99.90;;;;;;5006462;28;20081;-63
2022/02/18 02:17:26;;;;;;;7.80;2.20;;;5.00;99.90;;;;;;5039373;28;20081;-63
2022/02/18 02:19:53;;;;;;;15.43;2.88;;;5.00;99.90;;;;;;5043531;28;20055;-63
2022/02/18 02:22:27;;;;;;;13.52;2.65;;;5.00;99.90;;;;;;5043040;28;20045;-63
2022/02/18 02:24:54;;;;;;;19.17;3.17;;;4.90;99.90;;;;;;5038063;28;20045;-63
2022/02/18 02:27:22;;;;;;;14.52;2.80;;;4.90;99.90;;;;;;5041186;28;20036;-63
2022/02/18 02:29:51;;;;;;;12.82;2.72;;;4.90;99.90;;;;;;5008142;28;20060;-63
2022/02/18 02:32:19;;;;;;;15.45;2.75;;;5.00;99.90;;;;;;5024923;28;20063;-63
2022/02/18 02:34:46;;;;;;;17.23;3.05;;;4.90;99.90;;;;;;5041047;28;20451;-63
2022/02/18 02:37:13;;;;;;;12.68;2.40;;;5.00;99.90;;;;;;5040937;28;20057;-63
2022/02/18 02:39:40;;;;;;;16.08;2.70;;;4.90;99.90;;;;;;5006881;28;20046;-63
2022/02/18 02:42:08;;;;;;;14.02;2.08;;;5.00;99.90;;;;;;5042625;28;20592;-63
2022/02/18 02:44:37;;;;;;;13.40;2.58;;;5.00;99.90;;;;;;5041256;28;20565;-63
2022/02/18 02:47:11;;;;;;;12.13;2.30;;;5.00;99.90;;;;;;5010384;28;20414;-63
2022/02/18 02:49:38;;;;;;;13.05;3.17;;;5.00;99.90;;;;;;5025836;28;20478;-62
2022/02/18 02:52:05;;;;;;;9.25;2.20;;;5.00;99.90;;;;;;5005968;28;20041;-63
2022/02/18 02:54:31;;;;;;;14.23;2.08;;;5.00;99.90;;;;;;5040945;28;20053;-65
2022/02/18 02:57:04;;;;;;;9.35;2.15;;;5.00;99.90;;;;;;5011113;28;20049;-63
2022/02/18 02:59:36;;;;;;;12.43;1.98;;;5.00;99.90;;;;;;5042569;28;20389;-63
2022/02/18 03:02:03;;;;;;;11.68;2.47;;;4.90;99.90;;;;;;5025275;28;20045;-61
2022/02/18 03:04:29;;;;;;;10.98;2.38;;;4.90;99.90;;;;;;5041503;28;20068;-62
2022/02/18 03:06:56;;;;;;;12.43;3.03;;;4.90;99.90;;;;;;5007996;28;20150;-62
2022/02/18 03:09:22;;;;;;;10.52;2.20;;;4.90;99.90;;;;;;4992905;28;20532;-62
2022/02/18 03:12:11;;;;;;;13.65;2.80;;;5.00;99.90;;;;;;5024109;28;20613;-62
2022/02/18 03:14:47;;;;;;;8.75;2.90;;;5.00;99.90;;;;;;5009750;28;20052;-62
2022/02/18 03:17:19;;;;;;;13.95;2.55;;;5.00;99.90;;;;;;5024411;28;20051;-62
2022/02/18 03:19:46;;;;;;;14.82;2.75;;;5.00;99.90;;;;;;5004821;28;20084;-62
2022/02/18 03:22:25;;;;;;;14.77;2.65;;;5.10;99.90;;;;;;5014540;28;20056;-62
2022/02/18 03:24:53;;;;;;;10.82;2.97;;;5.10;99.90;;;;;;5021923;28;20407;-62
2022/02/18 03:27:20;;;;;;;16.25;3.28;;;5.10;99.90;;;;;;5024507;28;20401;-63
2022/02/18 03:29:48;;;;;;;16.13;2.78;;;5.00;99.90;;;;;;5024417;28;20130;-62
2022/02/18 03:32:22;;;;;;;15.80;3.15;;;5.10;99.90;;;;;;5041675;28;20098;-62
2022/02/18 03:34:48;;;;;;;16.02;2.65;;;5.10;99.90;;;;;;5040314;28;20077;-64
2022/02/18 03:37:18;;;;;;;13.75;2.28;;;5.00;99.90;;;;;;5022728;28;20064;-62
2022/02/18 03:39:44;;;;;;;14.60;2.55;;;5.00;99.90;;;;;;5039308;28;20048;-62
2022/02/18 03:42:10;;;;;;;11.13;2.42;;;5.10;99.90;;;;;;5024636;28;20683;-62
2022/02/18 03:44:36;;;;;;;10.60;2.92;;;5.10;99.90;;;;;;5042257;28;20420;-62
2022/02/18 03:47:06;;;;;;;16.33;3.65;;;5.00;99.90;;;;;;5042769;28;20057;-66
2022/02/18 03:49:33;;;;;;;13.13;2.47;;;5.10;99.90;;;;;;5013181;28;20064;-66
2022/02/18 03:52:00;;;;;;;6.95;2.30;;;5.10;99.90;;;;;;5036190;28;20091;-66
2022/02/18 03:54:27;;;;;;;12.90;2.72;;;5.10;99.90;;;;;;5004597;28;20060;-62
2022/02/18 03:56:54;;;;;;;12.45;3.55;;;5.10;99.90;;;;;;4980317;28;20064;-62
2022/02/18 03:59:21;;;;;;;15.43;3.08;;;5.10;99.90;;;;;;5020406;28;20045;-66
2022/02/18 04:01:50;;;;;;;18.25;3.20;;;5.10;99.90;;;;;;5013470;28;20527;-66
2022/02/18 04:04:17;;;;;;;15.32;3.38;;;5.20;99.90;;;;;;5045590;28;20090;-62
2022/02/18 04:07:11;;;;;;;12.23;2.95;;;5.10;99.90;;;;;;5040270;28;20079;-66
2022/02/18 04:09:44;;;;;;;15.15;3.08;;;5.20;99.90;;;;;;5024438;28;20072;-62
2022/02/18 04:12:19;;;;;;;16.98;3.10;;;5.20;99.90;;;;;;5041159;28;20055;-62
2022/02/18 04:14:47;;;;;;;13.88;2.92;;;5.30;99.90;;;;;;5024683;28;20485;-62
2022/02/18 04:17:17;;;;;;;13.70;2.83;;;5.30;99.90;;;;;;5037089;28;20052;-65
2022/02/18 04:19:47;;;;;;;20.00;3.38;;;5.30;99.90;;;;;;5023716;28;20049;-64
2022/02/18 04:22:20;;;;;;;19.60;3.65;;;5.40;99.90;;;;;;5008156;28;20041;-62
2022/02/18 04:24:48;;;;;;;15.77;3.28;;;5.40;99.90;;;;;;5039804;28;20044;-66
2022/02/18 04:27:15;;;;;;;12.75;3.33;;;5.40;99.90;;;;;;5058514;28;20053;-66
2022/02/18 04:29:42;;;;;;;11.77;3.92;;;5.40;99.90;;;;;;5040405;28;20041;-66
2022/02/18 04:32:08;;;;;;;15.48;3.45;;;5.40;99.90;;;;;;5040135;28;20055;-66
2022/02/18 04:34:34;;;;;;;16.38;4.15;;;5.40;99.90;;;;;;5043634;28;20056;-66
2022/02/18 04:37:01;;;;;;;19.83;4.05;;;5.40;99.90;;;;;;5043282;28;20053;-66
2022/02/18 04:39:27;;;;;;;15.15;4.57;;;5.40;99.90;;;;;;5022897;28;20037;-62
2022/02/18 04:41:53;;;;;;;20.00;4.35;;;5.40;99.90;;;;;;5040808;28;20415;-62
2022/02/18 04:44:19;;;;;;;13.38;4.35;;;5.40;99.90;;;;;;5039980;28;20045;-62
2022/02/18 04:46:45;;;;;;;20.77;5.50;;;5.40;99.90;;;;;;4992178;28;20041;-66
2022/02/18 04:49:11;;;;;;;17.00;4.63;;;5.50;99.90;;;;;;5043843;28;20049;-66
2022/02/18 04:51:37;;;;;;;19.45;4.70;;;5.50;99.90;;;;;;5014727;28;20575;-62
2022/02/18 04:54:05;;;;;;;21.73;5.25;;;5.50;99.90;;;;;;5036303;28;20080;-62
2022/02/18 04:56:31;;;;;;;22.98;5.28;;;5.50;99.90;;;;;;5040089;28;20049;-67
2022/02/18 04:58:57;;;;;;;24.23;5.65;;;5.50;99.90;;;;;;5038733;28;20408;-66
2022/02/18 05:01:23;;;;;;;19.55;5.05;;;5.50;99.90;;;;;;5025196;28;20041;-66
2022/02/18 05:03:50;;;;;;;15.30;4.13;;;5.50;99.90;;;;;;5042609;28;20048;-66
2022/02/18 05:06:17;;;;;;;23.63;5.28;;;5.50;99.90;;;;;;5040826;28;20148;-66
2022/02/18 05:08:43;;;;;;;18.55;4.75;;;5.60;99.90;;;;;;5015379;28;20088;-66
2022/02/18 05:11:10;;;;;;;28.27;5.80;;;5.60;99.90;;;;;;5008448;28;20495;-66
2022/02/18 05:13:37;;;;;;;26.80;4.60;;;5.60;99.90;;;;;;5041293;28;20131;-67
2022/02/18 05:16:04;;;;;;;23.30;5.38;;;5.60;99.90;;;;;;5040089;28;20056;-67
2022/02/18 05:18:31;;;;;;;21.00;4.28;;;5.60;99.90;;;;;;5023899;28;20577;-67
2022/02/18 05:20:57;;;;;;;17.48;4.80;;;5.60;99.90;;;;;;5038423;28;20083;-68
2022/02/18 05:23:24;;;;;;;26.08;5.07;;;5.60;99.90;;;;;;5024871;28;20044;-67
2022/02/18 05:25:50;;;;;;;28.27;5.22;;;5.60;99.90;;;;;;5005037;28;20091;-67
2022/02/18 05:28:16;;;;;;;26.30;5.55;;;5.60;99.90;;;;;;5022917;28;20144;-67
2022/02/18 05:30:43;;;;;;;23.65;4.88;;;5.70;99.90;;;;;;5043563;28;20037;-67
2022/02/18 05:33:12;;;;;;;22.60;5.28;;;5.60;99.90;;;;;;5045587;28;20099;-67
2022/02/18 05:35:41;;;;;;;21.95;4.93;;;5.70;99.90;;;;;;4995787;28;20416;-68
2022/02/18 05:38:07;;;;;;;27.42;5.20;;;5.60;99.90;;;;;;5040156;28;20045;-68
2022/02/18 05:40:34;;;;;;;30.60;5.65;;;5.70;99.90;;;;;;5020967;28;20048;-67
2022/02/18 05:43:01;;;;;;;26.38;5.68;;;5.70;99.90;;;;;;5042452;28;20067;-67
2022/02/18 05:45:27;;;;;;;25.85;6.40;;;5.70;99.90;;;;;;5024235;28;20060;-62
2022/02/18 05:47:53;;;;;;;24.52;5.15;;;5.60;99.90;;;;;;5019443;28;20053;-68
2022/02/18 05:50:20;;;;;;;21.50;5.45;;;5.60;99.90;;;;;;5039137;28;20049;-68
2022/02/18 05:52:46;;;;;;;24.23;6.07;;;5.60;99.90;;;;;;5043768;28;20084;-68
2022/02/18 05:55:13;;;;;;;21.27;5.60;;;5.60;99.90;;;;;;5039174;28;20077;-68
2022/02/18 05:57:39;;;;;;;28.75;7.60;;;5.60;99.90;;;;;;5044559;28;20502;-68
2022/02/18 06:00:07;;;;;;;31.65;8.45;;;5.50;99.90;;;;;;5043588;28;20045;-68
2022/02/18 06:02:43;;;;;;;27.75;6.40;;;5.50;99.90;;;;;;5054133;28;20048;-68
2022/02/18 06:05:10;;;;;;;25.93;6.53;;;5.60;99.90;;;;;;5043654;28;20128;-68
2022/02/18 06:07:37;;;;;;;30.85;6.53;;;5.50;99.90;;;;;;5011417;28;20299;-68
2022/02/18 06:10:04;;;;;;;31.50;7.07;;;5.50;99.90;;;;;;5025743;28;21615;-68
2022/02/18 06:12:30;;;;;;;25.10;6.78;;;5.50;99.90;;;;;;5021117;28;20199;-68
2022/02/18 06:14:56;;;;;;;28.77;8.15;;;5.50;99.90;;;;;;5014609;28;20083;-68
2022/02/18 06:17:22;;;;;;;33.78;8.27;;;5.50;99.90;;;;;;5042319;28;20114;-68
2022/02/18 06:19:49;;;;;;;26.02;8.75;;;5.50;99.90;;;;;;5042496;28;20045;-68
2022/02/18 06:22:15;;;;;;;24.98;8.82;;;5.50;99.90;;;;;;5041323;28;20506;-68
2022/02/18 06:24:42;;;;;;;30.25;10.15;;;5.50;99.90;;;;;;5039693;28;20045;-68
2022/02/18 06:27:09;;;;;;;37.92;10.45;;;5.50;99.90;;;;;;5024588;28;20103;-68
2022/02/18 06:29:35;;;;;;;35.13;11.13;;;5.60;99.90;;;;;;5022182;28;20432;-67
2022/02/18 06:32:08;;;;;;;30.83;11.65;;;5.60;99.90;;;;;;5043469;28;20447;-68
2022/02/18 06:34:35;;;;;;;35.28;9.82;;;5.60;99.90;;;;;;5039661;28;20044;-68
2022/02/18 06:37:01;;;;;;;37.92;11.95;;;5.60;99.90;;;;;;5039621;28;20049;-67
2022/02/18 06:39:27;;;;;;;37.33;13.43;;;5.70;99.90;;;;;;5042370;28;20044;-69
2022/02/18 06:41:53;;;;;;;37.78;13.68;;;5.70;99.90;;;;;;5039994;28;20496;-68
2022/02/18 06:44:19;;;;;;;41.88;13.48;;;5.70;99.90;;;;;;5041016;28;20392;-68
2022/02/18 06:46:45;;;;;;;32.78;12.43;;;5.70;99.90;;;;;;5042691;28;20041;-68
2022/02/18 06:49:11;;;;;;;27.70;11.73;;;5.70;99.90;;;;;;5025816;28;20063;-68
2022/02/18 06:51:37;;;;;;;32.97;12.75;;;5.70;99.90;;;;;;5044164;28;20037;-68
2022/02/18 06:54:04;;;;;;;31.55;13.15;;;5.70;99.90;;;;;;4992068;28;20040;-68
2022/02/18 06:56:30;;;;;;;28.20;13.15;;;5.70;99.90;;;;;;5040725;28;20053;-68
2022/02/18 06:58:57;;;;;;;36.42;13.75;;;5.80;99.90;;;;;;5041824;28;20037;-68
2022/02/18 07:01:23;;;;;;;32.88;12.55;;;5.80;99.90;;;;;;5042674;28;20060;-69
2022/02/18 07:03:49;;;;;;;41.65;13.30;;;5.90;99.90;;;;;;5042271;28;20112;-68
2022/02/18 07:06:15;;;;;;;32.10;11.63;;;5.90;99.90;;;;;;5041926;28;20530;-68
2022/02/18 07:08:41;;;;;;;34.20;13.23;;;6.00;99.90;;;;;;5024829;28;20048;-68
2022/02/18 07:11:07;;;;;;;31.75;10.88;;;6.00;99.90;;;;;;5036652;28;20048;-68
2022/02/18 07:13:33;;;;;;;37.15;11.40;;;6.00;99.90;;;;;;5039935;28;20408;-68
2022/02/18 07:15:59;;;;;;;37.92;10.75;;;6.10;99.90;;;;;;5041234;28;20056;-66
2022/02/18 07:18:26;;;;;;;38.72;10.57;;;6.10;99.90;;;;;;5039503;28;20052;-68
2022/02/18 07:20:53;;;;;;;35.00;10.15;;;6.20;99.90;;;;;;5041139;28;20128;-68
2022/02/18 07:23:19;;;;;;;38.97;9.27;;;6.20;99.90;;;;;;5040674;28;20063;-68
2022/02/18 07:25:45;;;;;;;38.50;9.00;;;6.20;99.90;;;;;;5042763;28;20041;-68
2022/02/18 07:28:11;;;;;;;35.85;9.35;;;6.20;99.90;;;;;;5041522;28;20547;-68
2022/02/18 07:30:38;;;;;;;32.20;8.85;;;6.20;99.90;;;;;;5024621;28;20071;-68
2022/02/18 07:33:05;;;;;;;34.15;10.30;;;6.30;99.90;;;;;;5041257;28;20045;-69
2022/02/18 07:35:34;;;;;;;31.48;8.38;;;6.30;99.90;;;;;;4991948;28;20048;-68
2022/02/18 07:38:02;;;;;;;30.40;7.60;;;6.30;99.90;;;;;;5041902;28;20059;-69
2022/02/18 07:40:29;;;;;;;35.22;8.38;;;6.40;99.90;;;;;;5057230;28;20056;-69
2022/02/18 07:42:56;;;;;;;34.63;7.65;;;6.40;99.90;;;;;;5040847;28;20040;-68
2022/02/18 07:45:23;;;;;;;40.75;8.25;;;6.40;99.90;;;;;;5056830;28;20049;-68
2022/02/18 07:47:57;;;;;;;31.83;7.35;;;6.40;99.90;;;;;;5042570;28;20066;-68
2022/02/18 07:50:24;;;;;;;28.52;7.82;;;6.40;99.90;;;;;;5064664;28;20052;-69
2022/02/18 07:52:52;;;;;;;34.22;6.97;;;6.40;99.90;;;;;;5063204;28;20052;-69
2022/02/18 07:55:18;;;;;;;31.67;7.57;;;6.50;99.90;;;;;;5041434;28;20508;-68
2022/02/18 07:57:45;;;;;;;38.05;7.95;;;6.40;99.90;;;;;;5041238;28;20565;-69
2022/02/18 08:00:11;;;;;;;31.00;6.78;;;6.50;99.90;;;;;;5006670;28;20135;-69
2022/02/18 08:02:41;;;;;;;34.35;7.50;;;6.50;99.90;;;;;;5022707;28;20056;-69
2022/02/18 08:05:07;;;;;;;41.05;8.45;;;6.50;99.90;;;;;;5024342;28;20076;-69
2022/02/18 08:07:37;;;;;;;33.95;7.30;;;6.50;99.90;;;;;;4992847;28;20070;-67
2022/02/18 08:10:04;;;;;;;35.35;8.80;;;6.50;99.90;;;;;;5041940;28;20044;-68
2022/02/18 08:12:30;;;;;;;34.13;8.38;;;6.40;99.90;;;;;;5037082;28;20484;-68
2022/02/18 08:14:56;;;;;;;35.88;6.80;;;6.50;99.90;;;;;;5039519;28;20552;-68
2022/02/18 08:17:22;;;;;;;35.63;7.88;;;6.40;99.90;;;;;;5022465;28;20477;-68
2022/02/18 08:19:48;;;;;;;45.80;6.95;;;6.50;99.90;;;;;;5039485;28;20041;-69
2022/02/18 08:22:17;;;;;;;39.85;8.48;;;6.50;99.90;;;;;;5039900;28;20377;-68
2022/02/18 08:24:43;;;;;;;43.75;8.90;;;6.40;99.90;;;;;;5004481;28;20724;-60
2022/02/18 08:27:09;;;;;;;40.30;8.07;;;6.50;99.90;;;;;;5038308;28;20514;-58
2022/02/18 08:29:35;;;;;;;47.97;8.85;;;6.50;99.90;;;;;;5042271;28;20183;-58
2022/02/18 08:32:01;;;;;;;36.78;8.52;;;6.50;99.90;;;;;;5036995;28;20056;-57
2022/02/18 08:34:28;;;;;;;36.85;9.95;;;6.50;99.90;;;;;;5041747;28;20056;-58
2022/02/18 08:36:54;;;;;;;45.47;10.23;;;6.50;99.90;;;;;;5021252;28;20065;-57
2022/02/18 08:39:20;;;;;;;38.70;10.13;;;6.50;99.90;;;;;;5043764;28;20045;-58
2022/02/18 08:41:46;;;;;;;36.63;10.38;;;6.50;99.90;;;;;;5041606;28;20052;-60
2022/02/18 08:44:14;;;;;;;38.00;11.23;;;6.60;99.90;;;;;;5041500;28;20053;-58
2022/02/18 08:46:40;;;;;;;42.28;12.48;;;6.60;99.90;;;;;;5040671;28;20064;-58
2022/02/18 08:49:06;;;;;;;36.25;12.60;;;6.60;99.90;;;;;;5039987;28;20037;-58
2022/02/18 08:51:32;;;;;;;28.65;11.98;;;6.60;99.90;;;;;;5042610;28;20571;-59
2022/02/18 08:53:59;;;;;;;40.40;12.90;;;6.60;99.90;;;;;;5041813;28;20116;-58
2022/02/18 08:56:28;;;;;;;34.60;13.07;;;6.60;99.90;;;;;;5041703;28;20049;-59
2022/02/18 08:58:56;;;;;;;42.05;14.40;;;6.60;99.90;;;;;;5022530;28;20472;-59
2022/02/18 09:01:27;;;;;;;36.15;15.60;;;6.60;99.90;;;;;;5041502;28;20045;-59
2022/02/18 09:03:54;;;;;;;32.67;13.00;;;6.70;99.90;;;;;;5043962;28;20381;-59
2022/02/18 09:06:20;;;;;;;35.83;14.25;;;6.70;99.90;;;;;;5042187;28;20052;-60
2022/02/18 09:08:47;;;;;;;30.75;13.18;;;6.80;99.90;;;;;;5045701;28;20079;-60
2022/02/18 09:11:14;;;;;;;34.70;14.80;;;6.80;99.90;;;;;;5037657;28;20478;-59
2022/02/18 09:13:41;;;;;;;29.20;12.68;;;6.90;99.90;;;;;;5041777;28;20451;-59
2022/02/18 09:16:07;;;;;;;33.03;14.88;;;6.90;99.90;;;;;;5026745;28;20049;-60
2022/02/18 09:18:38;;;;;;;27.60;12.60;;;7.00;99.90;;;;;;5024531;28;20359;-59
2022/02/18 09:21:06;;;;;;;25.85;11.80;;;7.10;99.90;;;;;;5057170;28;20460;-60
2022/02/18 09:23:32;;;;;;;21.00;10.60;;;7.10;99.90;;;;;;5045583;28;20090;-60
2022/02/18 09:25:58;;;;;;;19.52;10.65;;;7.20;99.90;;;;;;5042944;28;20080;-60
2022/02/18 09:28:28;;;;;;;25.20;10.00;;;7.20;99.90;;;;;;5045869;28;20126;-62
2022/02/18 09:30:55;;;;;;;20.27;9.13;;;7.20;99.90;;;;;;5045877;28;20049;-62
2022/02/18 09:33:23;;;;;;;21.25;9.55;;;7.30;99.90;;;;;;5049454;28;20056;-61
2022/02/18 09:35:49;;;;;;;19.77;10.05;;;7.30;99.90;;;;;;5026999;28;20041;-62
2022/02/18 09:38:17;;;;;;;22.30;9.88;;;7.40;99.90;;;;;;5046456;28;20456;-61
2022/02/18 09:40:44;;;;;;;21.80;9.30;;;7.40;99.90;;;;;;5041152;28;20047;-61
2022/02/18 09:43:11;;;;;;;22.52;9.07;;;7.40;99.90;;;;;;5048751;28;20172;-61
2022/02/18 09:45:45;;;;;;;22.00;9.30;;;7.50;99.90;;;;;;5043245;28;20049;-61
2022/02/18 09:48:24;;;;;;;18.92;8.70;;;7.50;99.90;;;;;;5003432;28;20053;-61
2022/02/18 09:50:53;;;;;;;17.83;8.77;;;7.60;99.90;;;;;;5039356;28;20895;-61
2022/02/18 09:53:20;;;;;;;17.02;8.45;;;7.70;99.90;;;;;;5041795;28;20490;-61
2022/02/18 09:55:47;;;;;;;19.75;9.68;;;7.70;99.90;;;;;;5045232;28;20500;-61
2022/02/18 09:58:22;;;;;;;24.13;9.77;;;7.80;99.90;;;;;;5056292;28;20087;-62
2022/02/18 10:00:50;;;;;;;22.80;9.45;;;7.80;99.90;;;;;;5023043;28;20040;-62
2022/02/18 10:03:20;;;;;;;18.17;8.73;;;7.90;99.90;;;;;;5041152;28;20251;-64
2022/02/18 10:05:46;;;;;;;18.92;9.00;;;8.00;99.90;;;;;;5041151;28;20067;-63
2022/02/18 10:08:22;;;;;;;18.25;9.55;;;8.00;99.90;;;;;;5037998;28;20056;-63
2022/02/18 10:11:06;;;;;;;21.52;9.57;;;8.10;99.90;;;;;;5038142;28;20045;-63
2022/02/18 10:13:35;;;;;;;19.80;7.90;;;8.20;99.90;;;;;;5038728;28;20563;-63
2022/02/18 10:16:04;;;;;;;17.25;7.97;;;8.20;99.90;;;;;;5021609;28;20080;-64
2022/02/18 10:18:53;;;;;;;20.70;8.80;;;8.30;99.90;;;;;;5021336;28;20037;-64
2022/02/18 10:21:32;;;;;;;21.05;8.85;;;8.30;99.90;;;;;;5040276;28;20033;-64
2022/02/18 10:24:15;;;;;;;18.55;8.65;;;8.40;99.90;;;;;;5006195;28;20067;-63
2022/02/18 10:26:45;;;;;;;20.75;9.60;;;8.50;99.90;;;;;;5040277;28;20061;-64
2022/02/18 10:29:19;;;;;;;22.67;10.73;;;8.50;99.90;;;;;;5022181;28;20118;-64
2022/02/18 10:32:12;;;;;;;23.60;9.98;;;8.60;99.90;;;;;;5039000;28;20040;-65
2022/02/18 10:35:09;;;;;;;18.13;9.57;;;8.70;99.90;;;;;;5021583;28;20079;-65
2022/02/18 10:37:35;;;;;;;24.13;10.38;;;8.70;99.90;;;;;;5018530;28;20397;-64
2022/02/18 10:40:10;;;;;;;20.85;9.73;;;8.70;99.90;;;;;;5039225;28;20053;-61
2022/02/18 10:42:37;;;;;;;19.00;9.63;;;8.80;99.90;;;;;;5040851;28;20041;-60
2022/02/18 10:45:20;;;;;;;17.52;10.02;;;8.90;99.90;;;;;;5021520;28;20052;-59
2022/02/18 10:47:48;;;;;;;17.25;9.23;;;8.90;99.90;;;;;;5042692;28;20049;-65
2022/02/18 10:50:26;;;;;;;19.00;10.05;;;8.90;99.90;;;;;;5041999;28;20057;-66
2022/02/18 10:53:12;;;;;;;17.65;8.10;;;8.90;99.90;;;;;;5043593;28;20036;-66
2022/02/18 10:55:48;;;;;;;14.75;9.27;;;8.90;99.90;;;;;;5020680;28;20053;-66
2022/02/18 10:58:23;;;;;;;17.63;8.93;;;9.00;99.90;;;;;;5038180;28;20045;-66
2022/02/18 11:01:13;;;;;;;18.95;9.18;;;9.00;99.90;;;;;;5036150;28;20037;-66
2022/02/18 11:03:42;;;;;;;15.95;8.90;;;9.10;99.90;;;;;;5035180;28;20045;-66
2022/02/18 11:06:16;;;;;;;19.38;9.55;;;9.10;99.90;;;;;;5042169;28;20112;-66
2022/02/18 11:08:56;;;;;;;12.80;8.02;;;9.20;99.90;;;;;;5036720;28;20167;-66
2022/02/18 11:11:29;;;;;;;18.67;10.00;;;9.20;99.90;;;;;;5016910;28;20045;-65
2022/02/18 11:13:56;;;;;;;16.02;9.10;;;9.30;99.90;;;;;;5035835;28;20040;-64
2022/02/18 11:16:26;;;;;;;16.73;8.52;;;9.30;99.90;;;;;;5033608;28;20429;-64
2022/02/18 11:18:52;;;;;;;15.60;9.48;;;9.30;99.90;;;;;;5034123;28;20145;-65
2022/02/18 11:21:19;;;;;;;14.55;8.75;;;9.40;99.90;;;;;;5037427;28;20068;-65
2022/02/18 11:23:48;;;;;;;15.52;8.95;;;9.40;99.90;;;;;;5050151;28;20075;-64
2022/02/18 11:26:20;;;;;;;16.83;10.00;;;9.40;99.90;;;;;;5036670;28;20111;-65
2022/02/18 11:28:46;;;;;;;;;;;9.50;99.90;;;;;;5036777;28;20497;-65
2022/02/18 11:31:25;;;;;;;14.52;9.27;;;9.50;99.90;;;;;;5034083;28;19956;-63
2022/02/18 11:33:59;;;;;;;15.77;9.70;;;9.60;99.90;;;;;;5033483;28;20049;-64
2022/02/18 11:36:54;;;;;;;15.45;9.93;;;9.60;99.90;;;;;;5032744;28;20747;-67
2022/02/18 11:39:38;;;;;;;16.38;8.75;;;9.60;99.90;;;;;;5042015;28;20052;-67
2022/02/18 11:42:35;;;;;;;15.30;9.48;;;9.70;99.90;;;;;;5026126;28;20132;-67
2022/02/18 11:45:07;;;;;;;15.45;8.32;;;9.70;99.90;;;;;;5043042;28;20052;-66
2022/02/18 11:47:35;;;;;;;12.32;9.18;;;9.70;99.90;;;;;;5043030;28;20048;-65
2022/02/18 11:50:09;;;;;;;12.05;7.95;;;9.70;99.90;;;;;;5044224;28;20067;-67
2022/02/18 11:52:50;;;;;;;12.55;7.97;;;9.90;99.90;;;;;;5042678;28;20056;-65
2022/02/18 11:55:30;;;;;;;13.68;7.75;;;9.90;99.90;;;;;;5044568;28;20139;-65
2022/02/18 11:58:08;;;;;;;12.15;7.20;;;10.00;99.90;;;;;;5041561;28;20142;-66
2022/02/18 12:00:38;;;;;;;9.63;6.40;;;10.00;99.90;;;;;;5041139;28;20048;-64
2022/02/18 12:03:24;;;;;;;8.10;6.55;;;10.10;99.90;;;;;;5044939;28;20094;-65
2022/02/18 12:06:12;;;;;;;10.52;6.57;;;10.20;99.90;;;;;;5044733;28;20074;-65
2022/02/18 12:08:42;;;;;;;6.03;5.38;;;10.20;99.90;;;;;;5044204;28;20080;-65
2022/02/18 12:11:13;;;;;;;7.20;6.30;;;10.30;99.90;;;;;;5042568;28;20056;-66
2022/02/18 12:13:52;;;;;;;7.82;5.38;;;10.30;99.90;;;;;;5044347;28;20076;-65
2022/02/18 12:16:20;;;;;;;7.53;4.93;;;10.40;99.90;;;;;;5044025;28;20049;-65
2022/02/18 12:19:13;;;;;;;6.43;4.85;;;10.40;99.90;;;;;;5044462;28;20056;-65
2022/02/18 12:22:02;;;;;;;5.28;4.22;;;10.50;99.90;;;;;;5045630;28;20443;-64
2022/02/18 12:24:54;;;;;;;6.38;4.55;;;10.50;99.90;;;;;;5047684;28;20053;-64
2022/02/18 12:27:23;;;;;;;5.75;4.43;;;10.60;99.90;;;;;;5046647;28;20045;-64
2022/02/18 12:29:53;;;;;;;6.25;3.90;;;10.60;99.90;;;;;;5045581;28;20123;-64
2022/02/18 12:32:21;;;;;;;5.25;3.75;;;10.70;99.90;;;;;;5041874;28;20057;-65
2022/02/18 12:35:07;;;;;;;4.28;3.20;;;10.70;99.90;;;;;;5039766;28;20187;-65
2022/02/18 12:37:36;;;;;;;7.53;3.92;;;10.80;99.90;;;;;;5027785;28;20122;-65
2022/02/18 12:40:15;;;;;;;4.95;3.35;;;10.80;99.90;;;;;;5056474;28;20045;-65
2022/02/18 12:42:42;;;;;;;4.88;3.55;;;10.80;99.90;;;;;;5053783;28;20508;-65
2022/02/18 12:45:11;;;;;;;6.75;3.85;;;10.80;99.90;;;;;;5032283;28;20045;-66
2022/02/18 12:47:44;;;;;;;5.97;3.92;;;10.80;99.90;;;;;;5015714;28;20099;-65
2022/02/18 12:50:13;;;;;;;4.35;3.50;;;10.80;99.90;;;;;;5067802;28;20060;-65
2022/02/18 12:52:40;;;;;;;4.40;3.00;;;10.80;99.90;;;;;;5070274;28;20055;-66
2022/02/18 12:55:09;;;;;;;4.22;3.47;;;10.80;99.90;;;;;;5071910;28;20094;-65
2022/02/18 12:57:38;;;;;;;5.05;2.97;;;10.90;99.90;;;;;;5067680;28;20059;-66